createdAt,value
2023-04-10T00:00:58.048Z,1.40
2023-04-10T00:01:57.961Z,1.50
2023-04-10T00:02:58.063Z,1.60
2023-04-10T00:03:58.293Z,1.40
2023-04-10T00:04:57.922Z,1.40
2023-04-10T00:05:57.904Z,1.30
2023-04-10T00:06:57.904Z,1.20
2023-04-10T00:07:57.910Z,1.30
2023-04-10T00:08:57.939Z,1.20
2023-04-10T00:09:57.921Z,1.10
2023-04-10T00:10:57.931Z,1.00
2023-04-10T00:11:57.940Z,1.30
2023-04-10T00:12:57.945Z,1.10
2023-04-10T00:13:57.945Z,1.10
2023-04-10T00:14:57.960Z,1.20
2023-04-10T00:15:57.964Z,1.20
2023-04-10T00:16:58.024Z,1.10
2023-04-10T00:17:58.044Z,1.00
2023-04-10T00:18:57.992Z,1.20
2023-04-10T00:19:57.994Z,1.10
2023-04-10T00:20:58.020Z,1.00
2023-04-10T00:21:58.035Z,1.00
2023-04-10T00:22:58.017Z,1.00
2023-04-10T00:23:58.018Z,1.20
2023-04-10T00:24:58.048Z,1.00
2023-04-10T00:25:58.040Z,1.00
2023-04-10T00:26:58.053Z,1.20
2023-04-10T00:27:58.049Z,1.20
2023-04-10T00:28:58.064Z,1.20
2023-04-10T00:29:58.081Z,1.10
2023-04-10T00:30:58.071Z,1.30
2023-04-10T00:31:58.210Z,1.20
2023-04-10T00:32:58.117Z,1.00
2023-04-10T00:33:58.094Z,1.10
2023-04-10T00:34:58.102Z,1.10
2023-04-10T00:35:58.112Z,1.10
2023-04-10T00:36:58.129Z,1.20
2023-04-10T00:37:58.118Z,1.00
2023-04-10T00:38:58.130Z,1.00
2023-04-10T00:39:58.138Z,1.10
2023-04-10T00:40:58.172Z,1.20
2023-04-10T00:41:58.147Z,1.00
2023-04-10T00:42:58.157Z,1.00
2023-04-10T00:43:58.164Z,1.10
2023-04-10T00:44:58.177Z,1.30
2023-04-10T00:45:58.229Z,1.10
2023-04-10T00:46:58.188Z,1.10
2023-04-10T00:47:58.234Z,1.00
2023-04-10T00:48:58.203Z,0.90
2023-04-10T00:49:58.205Z,1.10
2023-04-10T00:50:58.223Z,1.00
2023-04-10T00:51:58.711Z,1.10
2023-04-10T00:52:58.227Z,1.00
2023-04-10T00:53:58.231Z,1.00
2023-04-10T00:54:58.240Z,1.00
2023-04-10T00:55:58.249Z,1.10
2023-04-10T00:56:58.279Z,1.00
2023-04-10T00:57:58.258Z,1.00
2023-04-10T00:58:58.295Z,1.00
2023-04-10T00:59:58.274Z,1.20
2023-04-10T01:00:58.321Z,1.00
2023-04-10T01:01:58.362Z,1.10
2023-04-10T01:02:58.397Z,0.90
2023-04-10T01:03:58.930Z,1.00
2023-04-10T01:04:58.311Z,1.00
2023-04-10T01:05:58.318Z,1.10
2023-04-10T01:06:58.342Z,0.90
2023-04-10T01:07:58.331Z,0.90
2023-04-10T01:08:58.339Z,1.00
2023-04-10T01:09:58.360Z,0.90
2023-04-10T01:10:58.361Z,0.80
2023-04-10T01:11:58.356Z,0.80
2023-04-10T01:12:58.389Z,0.90
2023-04-10T01:13:58.376Z,1.00
2023-04-10T01:14:58.383Z,0.90
2023-04-10T01:15:58.387Z,0.80
2023-04-10T01:16:58.449Z,0.80
2023-04-10T01:17:58.425Z,0.90
2023-04-10T01:18:58.408Z,0.90
2023-04-10T01:19:58.409Z,0.80
2023-04-10T01:20:58.422Z,0.80
2023-04-10T01:21:58.426Z,0.90
2023-04-10T01:22:58.438Z,0.90
2023-04-10T01:23:58.436Z,0.80
2023-04-10T01:24:58.448Z,1.00
2023-04-10T01:25:58.461Z,0.90
2023-04-10T01:26:58.469Z,0.90
2023-04-10T01:27:58.463Z,0.90
2023-04-10T01:28:58.497Z,0.90
2023-04-10T01:29:58.479Z,0.90
2023-04-10T01:30:58.513Z,0.80
2023-04-10T01:31:58.504Z,0.90
2023-04-10T01:32:58.533Z,1.00
2023-04-10T01:33:58.512Z,0.90
2023-04-10T01:34:58.517Z,1.10
2023-04-10T01:35:58.546Z,0.80
2023-04-10T01:36:58.528Z,1.00
2023-04-10T01:37:58.530Z,0.90
2023-04-10T01:38:58.574Z,0.90
2023-04-10T01:39:58.548Z,0.80
2023-04-10T01:40:58.562Z,1.00
2023-04-10T01:41:58.564Z,1.00
2023-04-10T01:42:58.574Z,0.90
2023-04-10T01:43:58.583Z,0.90
2023-04-10T01:44:58.605Z,1.00
2023-04-10T01:45:58.696Z,1.00
2023-04-10T01:46:58.623Z,1.00
2023-04-10T01:47:58.676Z,1.50
2023-04-10T01:48:58.608Z,1.60
2023-04-10T01:49:58.617Z,1.80
2023-04-10T01:50:58.626Z,1.70
2023-04-10T01:51:58.623Z,1.70
2023-04-10T01:52:58.632Z,1.40
2023-04-10T01:53:58.638Z,1.40
2023-04-10T01:54:58.645Z,1.30
2023-04-10T01:55:58.670Z,1.10
2023-04-10T01:56:58.666Z,0.90
2023-04-10T01:57:58.670Z,1.00
2023-04-10T01:58:58.677Z,1.10
2023-04-10T01:59:58.688Z,1.00
2023-04-10T02:00:58.913Z,0.90
2023-04-10T02:01:58.793Z,1.10
2023-04-10T02:02:58.844Z,1.00
2023-04-10T02:03:58.910Z,1.00
2023-04-10T02:04:58.766Z,1.00
2023-04-10T02:05:58.716Z,0.90
2023-04-10T02:06:58.725Z,1.00
2023-04-10T02:07:58.732Z,0.80
2023-04-10T02:08:58.740Z,1.00
2023-04-10T02:09:58.745Z,0.90
2023-04-10T02:10:58.752Z,1.00
2023-04-10T02:11:58.755Z,0.70
2023-04-10T02:12:58.762Z,0.80
2023-04-10T02:13:58.765Z,0.90
2023-04-10T02:14:58.775Z,0.90
2023-04-10T02:15:58.903Z,0.90
2023-04-10T02:16:58.812Z,1.10
2023-04-10T02:17:58.904Z,1.00
2023-04-10T02:18:58.799Z,1.10
2023-04-10T02:19:58.804Z,1.00
2023-04-10T02:20:58.829Z,1.20
2023-04-10T02:21:58.827Z,1.00
2023-04-10T02:22:58.825Z,1.10
2023-04-10T02:23:58.829Z,0.90
2023-04-10T02:24:58.837Z,1.10
2023-04-10T02:25:58.843Z,1.00
2023-04-10T02:26:58.863Z,1.10
2023-04-10T02:27:58.869Z,1.10
2023-04-10T02:28:58.868Z,1.00
2023-04-10T02:29:58.933Z,1.20
2023-04-10T02:30:58.901Z,1.00
2023-04-10T02:31:58.879Z,1.00
2023-04-10T02:32:58.956Z,1.30
2023-04-10T02:33:58.892Z,1.10
2023-04-10T02:34:58.901Z,1.10
2023-04-10T02:35:58.970Z,1.10
2023-04-10T02:36:58.929Z,1.20
2023-04-10T02:37:58.928Z,1.20
2023-04-10T02:38:58.938Z,1.00
2023-04-10T02:39:58.933Z,1.10
2023-04-10T02:40:58.946Z,1.20
2023-04-10T02:41:58.941Z,1.10
2023-04-10T02:42:58.954Z,1.10
2023-04-10T02:43:58.957Z,1.20
2023-04-10T02:44:58.966Z,1.10
2023-04-10T02:45:58.968Z,1.10
2023-04-10T02:46:58.990Z,1.10
2023-04-10T02:47:59.092Z,1.10
2023-04-10T02:48:59.013Z,1.10
2023-04-10T02:49:58.995Z,1.10
2023-04-10T02:50:59.012Z,1.30
2023-04-10T02:51:59.009Z,1.10
2023-04-10T02:52:59.016Z,1.20
2023-04-10T02:53:59.022Z,1.00
2023-04-10T02:54:59.035Z,1.00
2023-04-10T02:55:59.036Z,1.00
2023-04-10T02:56:59.046Z,1.30
2023-04-10T02:57:59.068Z,1.10
2023-04-10T02:58:59.056Z,1.20
2023-04-10T02:59:59.071Z,0.90
2023-04-10T03:00:59.077Z,1.10
2023-04-10T03:01:59.116Z,1.30
2023-04-10T03:02:59.216Z,1.10
2023-04-10T03:03:59.147Z,1.20
2023-04-10T03:04:59.197Z,1.00
2023-04-10T03:05:59.099Z,1.10
2023-04-10T03:06:59.112Z,1.30
2023-04-10T03:07:59.118Z,1.30
2023-04-10T03:08:59.178Z,1.40
2023-04-10T03:09:59.124Z,1.50
2023-04-10T03:10:59.155Z,1.20
2023-04-10T03:11:59.152Z,1.40
2023-04-10T03:12:59.151Z,1.20
2023-04-10T03:13:59.151Z,1.30
2023-04-10T03:14:59.162Z,1.20
2023-04-10T03:15:59.235Z,2.30
2023-04-10T03:16:59.206Z,15.80
2023-04-10T03:17:59.201Z,14.20
2023-04-10T03:18:59.200Z,4.70
2023-04-10T03:19:59.194Z,4.00
2023-04-10T03:20:59.225Z,2.00
2023-04-10T03:21:59.230Z,1.30
2023-04-10T03:22:59.216Z,1.10
2023-04-10T03:23:59.215Z,1.00
2023-04-10T03:24:59.232Z,1.20
2023-04-10T03:25:59.233Z,1.00
2023-04-10T03:26:59.242Z,0.90
2023-04-10T03:27:59.240Z,0.90
2023-04-10T03:28:59.247Z,1.10
2023-04-10T03:29:59.268Z,1.10
2023-04-10T03:30:59.288Z,0.90
2023-04-10T03:31:59.305Z,0.90
2023-04-10T03:32:59.273Z,0.90
2023-04-10T03:33:59.348Z,0.90
2023-04-10T03:34:59.284Z,0.90
2023-04-10T03:35:59.354Z,0.90
2023-04-10T03:36:59.326Z,1.00
2023-04-10T03:37:59.442Z,0.90
2023-04-10T03:38:59.398Z,1.00
2023-04-10T03:39:59.329Z,1.00
2023-04-10T03:40:59.328Z,1.20
2023-04-10T03:41:59.331Z,1.40
2023-04-10T03:42:59.336Z,1.70
2023-04-10T03:43:59.340Z,1.50
2023-04-10T03:44:59.349Z,1.30
2023-04-10T03:45:59.370Z,1.60
2023-04-10T03:46:59.426Z,2.30
2023-04-10T03:47:59.383Z,2.10
2023-04-10T03:48:59.376Z,1.90
2023-04-10T03:49:59.380Z,1.60
2023-04-10T03:50:59.390Z,1.40
2023-04-10T03:51:59.396Z,1.70
2023-04-10T03:52:59.430Z,1.80
2023-04-10T03:53:59.413Z,1.80
2023-04-10T03:54:59.417Z,1.10
2023-04-10T03:55:59.419Z,1.20
2023-04-10T03:56:59.436Z,0.90
2023-04-10T03:57:59.426Z,1.00
2023-04-10T03:58:59.434Z,0.80
2023-04-10T03:59:59.438Z,0.80
2023-04-10T04:00:59.454Z,0.80
2023-04-10T04:01:59.543Z,0.80
2023-04-10T04:02:59.626Z,0.80
2023-04-10T04:04:00.141Z,0.90
2023-04-10T04:04:59.529Z,0.70
2023-04-10T04:05:59.490Z,0.80
2023-04-10T04:06:59.496Z,0.80
2023-04-10T04:07:59.489Z,0.80
2023-04-10T04:08:59.519Z,0.70
2023-04-10T04:09:59.505Z,0.70
2023-04-10T04:10:59.512Z,0.70
2023-04-10T04:11:59.512Z,0.70
2023-04-10T04:12:59.521Z,0.70
2023-04-10T04:13:59.523Z,0.70
2023-04-10T04:14:59.545Z,0.70
2023-04-10T04:15:59.552Z,0.70
2023-04-10T04:16:59.599Z,0.70
2023-04-10T04:17:59.603Z,0.60
2023-04-10T04:18:59.558Z,0.70
2023-04-10T04:19:59.560Z,0.70
2023-04-10T04:20:59.575Z,0.70
2023-04-10T04:21:59.585Z,0.70
2023-04-10T04:22:59.588Z,0.80
2023-04-10T04:23:59.592Z,0.70
2023-04-10T04:24:59.610Z,0.70
2023-04-10T04:25:59.600Z,0.70
2023-04-10T04:26:59.606Z,0.60
2023-04-10T04:27:59.614Z,0.60
2023-04-10T04:28:59.616Z,0.60
2023-04-10T04:29:59.661Z,0.70
2023-04-10T04:30:59.627Z,0.70
2023-04-10T04:31:59.668Z,0.70
2023-04-10T04:32:59.738Z,0.70
2023-04-10T04:33:59.648Z,0.80
2023-04-10T04:34:59.660Z,0.80
2023-04-10T04:35:59.674Z,0.80
2023-04-10T04:36:59.685Z,0.80
2023-04-10T04:37:59.683Z,0.80
2023-04-10T04:38:59.678Z,0.80
2023-04-10T04:39:59.685Z,0.80
2023-04-10T04:40:59.710Z,0.70
2023-04-10T04:41:59.701Z,0.80
2023-04-10T04:42:59.712Z,0.70
2023-04-10T04:43:59.713Z,0.80
2023-04-10T04:44:59.714Z,0.70
2023-04-10T04:45:59.768Z,0.80
2023-04-10T04:46:59.725Z,0.90
2023-04-10T04:47:59.797Z,0.90
2023-04-10T04:48:59.749Z,1.00
2023-04-10T04:49:59.762Z,0.80
2023-04-10T04:50:59.748Z,0.70
2023-04-10T04:51:59.771Z,0.80
2023-04-10T04:52:59.763Z,0.70
2023-04-10T04:53:59.772Z,0.70
2023-04-10T04:54:59.777Z,0.70
2023-04-10T04:55:59.782Z,0.70
2023-04-10T04:56:59.808Z,0.70
2023-04-10T04:57:59.804Z,0.80
2023-04-10T04:58:59.798Z,0.70
2023-04-10T04:59:59.810Z,0.70
2023-04-10T05:00:59.822Z,0.60
2023-04-10T05:01:59.871Z,0.60
2023-04-10T05:02:59.998Z,0.80
2023-04-10T05:03:59.880Z,0.70
2023-04-10T05:04:59.833Z,0.70
2023-04-10T05:05:59.845Z,0.70
2023-04-10T05:06:59.857Z,0.80
2023-04-10T05:07:59.857Z,0.90
2023-04-10T05:08:59.869Z,0.80
2023-04-10T05:09:59.868Z,0.90
2023-04-10T05:10:59.875Z,0.90
2023-04-10T05:11:59.903Z,0.90
2023-04-10T05:12:59.904Z,0.80
2023-04-10T05:13:59.897Z,0.80
2023-04-10T05:14:59.897Z,2.60
2023-04-10T05:15:59.975Z,4.00
2023-04-10T05:17:02.170Z,2.00
2023-04-10T05:18:00.041Z,1.10
2023-04-10T05:18:59.988Z,0.90
2023-04-10T05:19:59.924Z,0.80
2023-04-10T05:20:59.929Z,0.70
2023-04-10T05:21:59.939Z,0.80
2023-04-10T05:22:59.954Z,0.70
2023-04-10T05:23:59.965Z,0.60
2023-04-10T05:24:59.951Z,0.80
2023-04-10T05:25:59.961Z,0.70
2023-04-10T05:26:59.965Z,0.60
2023-04-10T05:27:59.974Z,0.70
2023-04-10T05:29:00.005Z,0.80
2023-04-10T05:29:59.985Z,0.80
2023-04-10T05:31:00.058Z,0.80
2023-04-10T05:32:00.001Z,0.70
2023-04-10T05:33:00.032Z,0.70
2023-04-10T05:34:00.010Z,0.70
2023-04-10T05:35:00.014Z,0.70
2023-04-10T05:36:00.067Z,0.70
2023-04-10T05:37:00.034Z,0.70
2023-04-10T05:38:00.115Z,0.80
2023-04-10T05:39:00.041Z,0.90
2023-04-10T05:40:00.069Z,0.90
2023-04-10T05:41:00.052Z,0.90
2023-04-10T05:42:00.063Z,0.90
2023-04-10T05:43:00.067Z,0.90
2023-04-10T05:44:00.078Z,0.80
2023-04-10T05:45:00.173Z,0.90
2023-04-10T05:46:00.146Z,0.80
2023-04-10T05:47:00.095Z,0.80
2023-04-10T05:48:00.177Z,0.90
2023-04-10T05:49:00.121Z,0.90
2023-04-10T05:50:00.176Z,0.80
2023-04-10T05:51:00.152Z,0.90
2023-04-10T05:52:00.146Z,0.90
2023-04-10T05:53:00.139Z,0.70
2023-04-10T05:54:00.150Z,0.80
2023-04-10T05:55:00.199Z,0.80
2023-04-10T05:56:00.189Z,0.80
2023-04-10T05:57:00.148Z,0.80
2023-04-10T05:58:00.164Z,1.00
2023-04-10T05:59:00.178Z,0.80
2023-04-10T06:00:00.314Z,0.90
2023-04-10T06:01:00.196Z,0.80
2023-04-10T06:02:00.261Z,0.90
2023-04-10T06:03:00.336Z,1.00
2023-04-10T06:04:00.439Z,1.00
2023-04-10T06:05:00.245Z,0.80
2023-04-10T06:06:00.211Z,0.80
2023-04-10T06:07:00.210Z,0.80
2023-04-10T06:08:00.217Z,0.70
2023-04-10T06:09:00.222Z,0.70
2023-04-10T06:10:00.226Z,0.70
2023-04-10T06:11:00.231Z,0.70
2023-04-10T06:12:00.241Z,0.70
2023-04-10T06:13:00.247Z,0.70
2023-04-10T06:14:00.258Z,0.70
2023-04-10T06:15:00.262Z,0.80
2023-04-10T06:16:00.370Z,0.70
2023-04-10T06:17:00.287Z,0.80
2023-04-10T06:18:00.434Z,1.00
2023-04-10T06:19:00.284Z,0.70
2023-04-10T06:20:00.287Z,0.70
2023-04-10T06:21:00.313Z,0.70
2023-04-10T06:22:00.301Z,0.80
2023-04-10T06:23:00.305Z,0.70
2023-04-10T06:24:00.315Z,0.70
2023-04-10T06:25:00.324Z,0.70
2023-04-10T06:26:00.338Z,0.70
2023-04-10T06:27:00.337Z,0.70
2023-04-10T06:28:00.335Z,0.80
2023-04-10T06:29:00.346Z,0.70
2023-04-10T06:30:00.353Z,0.70
2023-04-10T06:31:00.393Z,0.80
2023-04-10T06:32:00.368Z,0.80
2023-04-10T06:33:00.420Z,0.70
2023-04-10T06:34:00.373Z,0.70
2023-04-10T06:35:00.380Z,0.70
2023-04-10T06:36:00.420Z,0.70
2023-04-10T06:37:00.396Z,0.80
2023-04-10T06:38:00.414Z,0.80
2023-04-10T06:39:00.440Z,0.80
2023-04-10T06:40:00.413Z,0.70
2023-04-10T06:41:00.421Z,0.80
2023-04-10T06:42:00.434Z,0.70
2023-04-10T06:43:00.578Z,0.80
2023-04-10T06:44:01.921Z,0.80
2023-04-10T06:45:00.477Z,0.80
2023-04-10T06:46:00.449Z,0.80
2023-04-10T06:47:00.526Z,0.80
2023-04-10T06:48:00.504Z,0.80
2023-04-10T06:49:00.484Z,0.70
2023-04-10T06:50:00.492Z,0.80
2023-04-10T06:51:00.478Z,0.80
2023-04-10T06:52:00.486Z,0.80
2023-04-10T06:53:00.492Z,0.70
2023-04-10T06:54:00.503Z,0.70
2023-04-10T06:55:00.503Z,0.70
2023-04-10T06:56:03.113Z,0.70
2023-04-10T06:57:00.517Z,0.70
2023-04-10T06:58:00.524Z,0.70
2023-04-10T06:59:00.528Z,0.70
2023-04-10T07:00:00.543Z,0.70
2023-04-10T07:01:00.584Z,0.80
2023-04-10T07:02:00.610Z,0.70
2023-04-10T07:03:00.604Z,0.70
2023-04-10T07:04:00.633Z,0.70
2023-04-10T07:05:00.584Z,0.80
2023-04-10T07:06:00.589Z,0.70
2023-04-10T07:07:00.580Z,0.80
2023-04-10T07:08:00.594Z,0.80
2023-04-10T07:09:00.606Z,0.70
2023-04-10T07:10:00.645Z,0.70
2023-04-10T07:11:00.620Z,0.80
2023-04-10T07:12:00.621Z,0.80
2023-04-10T07:13:00.650Z,0.80
2023-04-10T07:14:00.626Z,0.80
2023-04-10T07:15:00.645Z,0.70
2023-04-10T07:16:00.694Z,0.70
2023-04-10T07:17:00.649Z,0.70
2023-04-10T07:18:00.697Z,0.80
2023-04-10T07:19:00.658Z,0.80
2023-04-10T07:20:00.681Z,0.70
2023-04-10T07:21:00.694Z,0.70
2023-04-10T07:22:00.696Z,0.70
2023-04-10T07:23:00.888Z,0.70
2023-04-10T07:24:00.696Z,0.70
2023-04-10T07:25:00.700Z,0.70
2023-04-10T07:26:00.706Z,0.70
2023-04-10T07:27:00.711Z,0.70
2023-04-10T07:28:00.730Z,0.70
2023-04-10T07:29:00.733Z,0.70
2023-04-10T07:30:00.736Z,0.80
2023-04-10T07:31:00.741Z,0.70
2023-04-10T07:32:00.832Z,0.70
2023-04-10T07:33:00.995Z,0.80
2023-04-10T07:34:00.758Z,0.70
2023-04-10T07:35:00.775Z,0.70
2023-04-10T07:36:00.787Z,0.60
2023-04-10T07:37:00.814Z,0.70
2023-04-10T07:38:00.786Z,0.90
2023-04-10T07:39:00.791Z,0.80
2023-04-10T07:40:00.808Z,0.70
2023-04-10T07:41:00.815Z,0.70
2023-04-10T07:42:00.835Z,0.60
2023-04-10T07:43:00.817Z,0.70
2023-04-10T07:44:00.832Z,0.70
2023-04-10T07:45:00.839Z,0.80
2023-04-10T07:46:00.885Z,0.80
2023-04-10T07:47:00.859Z,0.90
2023-04-10T07:48:00.913Z,0.80
2023-04-10T07:49:00.871Z,0.90
2023-04-10T07:50:00.868Z,0.80
2023-04-10T07:51:00.877Z,0.70
2023-04-10T07:52:00.889Z,0.80
2023-04-10T07:53:00.917Z,0.70
2023-04-10T07:54:00.898Z,0.80
2023-04-10T07:55:00.902Z,0.80
2023-04-10T07:56:00.918Z,0.80
2023-04-10T07:57:00.920Z,0.70
2023-04-10T07:58:00.933Z,0.80
2023-04-10T07:59:00.947Z,0.70
2023-04-10T08:00:00.957Z,0.70
2023-04-10T08:01:00.947Z,0.70
2023-04-10T08:02:01.058Z,0.70
2023-04-10T08:03:01.367Z,0.70
2023-04-10T08:04:03.860Z,0.70
2023-04-10T08:05:01.201Z,0.80
2023-04-10T08:06:00.994Z,0.80
2023-04-10T08:07:00.990Z,0.70
2023-04-10T08:08:00.999Z,0.70
2023-04-10T08:09:01.024Z,0.70
2023-04-10T08:10:01.017Z,0.80
2023-04-10T08:11:01.023Z,0.70
2023-04-10T08:12:01.051Z,0.70
2023-04-10T08:13:01.057Z,0.70
2023-04-10T08:14:01.088Z,0.70
2023-04-10T08:15:01.064Z,0.70
2023-04-10T08:16:01.067Z,0.70
2023-04-10T08:17:01.103Z,0.70
2023-04-10T08:18:01.105Z,0.70
2023-04-10T08:19:01.092Z,0.70
2023-04-10T08:20:01.104Z,0.80
2023-04-10T08:21:01.100Z,0.80
2023-04-10T08:22:01.110Z,0.70
2023-04-10T08:23:16.546Z,0.80
2023-04-10T08:24:01.128Z,0.70
2023-04-10T08:25:01.146Z,0.70
2023-04-10T08:26:01.147Z,0.70
2023-04-10T08:27:01.133Z,0.80
2023-04-10T08:28:01.152Z,0.80
2023-04-10T08:29:01.150Z,0.70
2023-04-10T08:30:01.183Z,0.80
2023-04-10T08:31:01.193Z,0.80
2023-04-10T08:32:01.260Z,0.80
2023-04-10T08:33:01.235Z,0.80
2023-04-10T08:34:01.198Z,0.70
2023-04-10T08:35:01.215Z,0.70
2023-04-10T08:36:01.224Z,0.80
2023-04-10T08:37:01.218Z,0.80
2023-04-10T08:38:13.427Z,0.80
2023-04-10T08:39:01.237Z,0.80
2023-04-10T08:40:01.239Z,0.80
2023-04-10T08:41:01.273Z,0.80
2023-04-10T08:42:01.255Z,0.90
2023-04-10T08:43:01.280Z,0.80
2023-04-10T08:44:01.269Z,0.80
2023-04-10T08:45:01.285Z,0.70
2023-04-10T08:46:01.322Z,0.70
2023-04-10T08:47:01.317Z,0.70
2023-04-10T08:48:01.318Z,0.70
2023-04-10T08:49:01.366Z,0.90
2023-04-10T08:50:01.335Z,0.70
2023-04-10T08:51:01.337Z,0.70
2023-04-10T08:52:01.338Z,0.70
2023-04-10T08:53:01.348Z,0.80
2023-04-10T08:54:01.358Z,0.70
2023-04-10T08:55:01.365Z,0.70
2023-04-10T08:56:01.368Z,0.80
2023-04-10T08:57:01.410Z,0.70
2023-04-10T08:58:01.965Z,0.70
2023-04-10T08:59:01.406Z,0.70
2023-04-10T09:00:06.767Z,0.70
2023-04-10T09:01:01.413Z,0.70
2023-04-10T09:02:01.482Z,0.70
2023-04-10T09:03:01.503Z,0.70
2023-04-10T09:04:01.714Z,0.80
2023-04-10T09:05:01.446Z,0.70
2023-04-10T09:06:01.449Z,0.60
2023-04-10T09:07:01.465Z,0.70
2023-04-10T09:08:01.468Z,0.60
2023-04-10T09:10:01.491Z,0.70
2023-04-10T09:11:01.499Z,0.70
2023-04-10T09:12:01.867Z,1.00
2023-04-10T09:13:01.533Z,0.70
2023-04-10T09:14:01.525Z,0.70
2023-04-10T09:15:01.530Z,0.70
2023-04-10T09:16:01.609Z,0.70
2023-04-10T09:17:01.550Z,0.70
2023-04-10T09:18:01.691Z,0.70
2023-04-10T09:19:01.577Z,0.70
2023-04-10T09:20:01.576Z,0.70
2023-04-10T09:21:01.582Z,0.70
2023-04-10T09:22:01.589Z,0.60
2023-04-10T09:23:01.600Z,0.80
2023-04-10T09:24:01.626Z,0.70
2023-04-10T09:25:01.629Z,0.70
2023-04-10T09:26:01.625Z,0.70
2023-04-10T09:27:01.662Z,0.80
2023-04-10T09:28:01.649Z,0.80
2023-04-10T09:29:01.732Z,0.80
2023-04-10T09:30:01.658Z,0.70
2023-04-10T09:31:01.701Z,0.70
2023-04-10T09:32:01.683Z,0.80
2023-04-10T09:33:02.920Z,0.80
2023-04-10T09:34:01.698Z,0.80
2023-04-10T09:35:01.719Z,0.80
2023-04-10T09:36:01.773Z,0.80
2023-04-10T09:37:01.823Z,0.70
2023-04-10T09:38:01.818Z,0.70
2023-04-10T09:39:01.754Z,0.80
2023-04-10T09:40:01.856Z,0.90
2023-04-10T09:41:01.771Z,0.90
2023-04-10T09:42:01.768Z,0.80
2023-04-10T09:43:01.782Z,0.90
2023-04-10T09:44:01.793Z,0.80
2023-04-10T09:45:01.855Z,0.80
2023-04-10T09:46:01.810Z,0.80
2023-04-10T09:47:01.856Z,0.90
2023-04-10T09:48:01.904Z,0.80
2023-04-10T09:49:01.877Z,0.80
2023-04-10T09:50:01.857Z,0.80
2023-04-10T09:51:01.854Z,0.90
2023-04-10T09:52:01.869Z,0.80
2023-04-10T09:53:01.881Z,0.80
2023-04-10T09:54:01.897Z,0.80
2023-04-10T09:55:01.896Z,0.80
2023-04-10T09:56:01.902Z,0.80
2023-04-10T09:57:01.918Z,0.90
2023-04-10T09:58:01.920Z,0.80
2023-04-10T09:59:01.948Z,0.90
2023-04-10T10:00:01.966Z,0.90
2023-04-10T10:01:01.997Z,0.90
2023-04-10T10:02:02.037Z,0.90
2023-04-10T10:03:02.070Z,0.80
2023-04-10T10:04:02.001Z,0.70
2023-04-10T10:05:02.052Z,0.70
2023-04-10T10:06:02.004Z,0.80
2023-04-10T10:07:02.020Z,0.80
2023-04-10T10:08:02.051Z,0.80
2023-04-10T10:09:02.069Z,0.80
2023-04-10T10:10:02.056Z,0.80
2023-04-10T10:11:02.062Z,1.10
2023-04-10T10:12:02.105Z,0.80
2023-04-10T10:13:02.094Z,0.80
2023-04-10T10:14:02.118Z,0.80
2023-04-10T10:15:02.156Z,0.80
2023-04-10T10:16:02.186Z,0.80
2023-04-10T10:17:02.277Z,0.80
2023-04-10T10:18:02.185Z,0.80
2023-04-10T10:19:02.144Z,0.90
2023-04-10T10:20:02.162Z,0.80
2023-04-10T10:21:02.171Z,0.80
2023-04-10T10:22:02.188Z,0.80
2023-04-10T10:23:02.192Z,0.70
2023-04-10T10:24:02.248Z,0.90
2023-04-10T10:25:02.212Z,0.80
2023-04-10T10:26:03.744Z,0.90
2023-04-10T10:27:02.269Z,0.70
2023-04-10T10:28:02.277Z,0.80
2023-04-10T10:29:02.260Z,0.80
2023-04-10T10:30:05.493Z,0.80
2023-04-10T10:31:02.292Z,0.80
2023-04-10T10:32:02.331Z,0.80
2023-04-10T10:33:02.371Z,0.80
2023-04-10T10:34:02.311Z,0.80
2023-04-10T10:35:02.328Z,0.80
2023-04-10T10:36:02.342Z,0.80
2023-04-10T10:37:02.358Z,0.70
2023-04-10T10:38:02.376Z,0.70
2023-04-10T10:39:02.377Z,1.00
2023-04-10T10:40:02.422Z,0.80
2023-04-10T10:41:02.398Z,0.90
2023-04-10T10:42:02.430Z,0.90
2023-04-10T10:43:02.428Z,0.90
2023-04-10T10:44:02.447Z,0.80
2023-04-10T10:45:02.463Z,0.80
2023-04-10T10:46:02.590Z,0.80
2023-04-10T10:47:02.469Z,0.90
2023-04-10T10:48:02.508Z,0.90
2023-04-10T10:49:02.563Z,0.80
2023-04-10T10:50:02.513Z,0.80
2023-04-10T10:51:02.515Z,0.80
2023-04-10T10:52:02.523Z,0.80
2023-04-10T10:53:02.564Z,1.10
2023-04-10T10:54:02.549Z,0.90
2023-04-10T10:55:02.564Z,0.90
2023-04-10T10:56:02.572Z,1.00
2023-04-10T10:57:02.616Z,0.80
2023-04-10T10:58:02.616Z,0.80
2023-04-10T10:59:02.621Z,0.80
2023-04-10T11:00:02.634Z,0.90
2023-04-10T11:01:02.688Z,1.00
2023-04-10T11:02:02.801Z,0.80
2023-04-10T11:03:02.895Z,0.90
2023-04-10T11:04:03.001Z,1.00
2023-04-10T11:05:02.769Z,0.90
2023-04-10T11:06:02.729Z,0.90
2023-04-10T11:07:02.743Z,0.90
2023-04-10T11:08:02.790Z,0.80
2023-04-10T11:09:02.735Z,1.00
2023-04-10T11:10:02.849Z,0.90
2023-04-10T11:11:02.827Z,1.00
2023-04-10T11:12:02.763Z,0.90
2023-04-10T11:13:02.778Z,0.90
2023-04-10T11:14:02.784Z,0.90
2023-04-10T11:15:02.940Z,1.00
2023-04-10T11:16:02.822Z,1.00
2023-04-10T11:17:02.944Z,0.90
2023-04-10T11:18:02.883Z,0.80
2023-04-10T11:19:13.363Z,1.00
2023-04-10T11:20:02.887Z,0.80
2023-04-10T11:21:02.902Z,0.90
2023-04-10T11:22:02.912Z,0.80
2023-04-10T11:23:02.912Z,0.90
2023-04-10T11:24:02.924Z,0.70
2023-04-10T11:25:03.019Z,0.80
2023-04-10T11:26:02.935Z,0.70
2023-04-10T11:27:03.042Z,0.80
2023-04-10T11:28:02.962Z,0.80
2023-04-10T11:29:02.981Z,0.90
2023-04-10T11:30:03.007Z,0.80
2023-04-10T11:31:03.021Z,0.90
2023-04-10T11:32:03.025Z,0.80
2023-04-10T11:33:03.127Z,0.80
2023-04-10T11:34:03.051Z,0.70
2023-04-10T11:35:04.839Z,0.80
2023-04-10T11:36:03.119Z,0.70
2023-04-10T11:37:03.106Z,0.80
2023-04-10T11:38:03.092Z,0.90
2023-04-10T11:39:03.100Z,0.80
2023-04-10T11:40:03.123Z,0.70
2023-04-10T11:41:03.134Z,0.80
2023-04-10T11:42:03.139Z,0.80
2023-04-10T11:43:03.153Z,0.70
2023-04-10T11:44:03.172Z,0.80
2023-04-10T11:45:03.202Z,0.70
2023-04-10T11:46:03.345Z,0.70
2023-04-10T11:47:03.217Z,0.80
2023-04-10T11:48:03.268Z,0.70
2023-04-10T11:49:03.234Z,0.70
2023-04-10T11:50:03.243Z,0.70
2023-04-10T11:51:03.266Z,0.80
2023-04-10T11:52:03.271Z,0.80
2023-04-10T11:53:03.309Z,0.80
2023-04-10T11:54:03.293Z,0.70
2023-04-10T11:55:03.317Z,0.70
2023-04-10T11:56:03.322Z,0.80
2023-04-10T11:57:03.384Z,0.80
2023-04-10T11:58:03.348Z,0.80
2023-04-10T11:59:03.364Z,0.80
2023-04-10T12:00:03.378Z,0.70
2023-04-10T12:01:03.397Z,0.70
2023-04-10T12:02:03.475Z,0.70
2023-04-10T12:03:03.585Z,0.70
2023-04-10T12:04:03.553Z,0.80
2023-04-10T12:05:03.472Z,0.70
2023-04-10T12:06:03.452Z,0.80
2023-04-10T12:07:03.487Z,0.80
2023-04-10T12:08:03.497Z,0.70
2023-04-10T12:09:03.522Z,0.70
2023-04-10T12:10:03.509Z,0.70
2023-04-10T12:11:03.528Z,0.80
2023-04-10T12:12:03.539Z,0.70
2023-04-10T12:13:03.552Z,0.80
2023-04-10T12:14:03.578Z,0.70
2023-04-10T12:15:03.576Z,0.90
2023-04-10T12:16:03.618Z,0.80
2023-04-10T12:17:03.609Z,0.80
2023-04-10T12:18:03.701Z,0.80
2023-04-10T12:19:03.651Z,0.70
2023-04-10T12:20:03.666Z,0.90
2023-04-10T12:21:04.705Z,0.80
2023-04-10T12:22:03.672Z,0.70
2023-04-10T12:23:03.687Z,0.80
2023-04-10T12:24:03.702Z,0.80
2023-04-10T12:25:03.765Z,0.70
2023-04-10T12:26:03.728Z,0.90
2023-04-10T12:27:03.743Z,0.70
2023-04-10T12:28:03.753Z,0.80
2023-04-10T12:29:03.785Z,0.80
2023-04-10T12:30:03.783Z,0.80
2023-04-10T12:31:03.843Z,0.80
2023-04-10T12:32:03.817Z,1.00
2023-04-10T12:33:03.853Z,0.80
2023-04-10T12:34:03.854Z,0.70
2023-04-10T12:35:03.855Z,0.80
2023-04-10T12:36:03.946Z,0.80
2023-04-10T12:37:03.885Z,0.80
2023-04-10T12:38:03.895Z,0.80
2023-04-10T12:39:03.912Z,0.90
2023-04-10T12:40:03.944Z,0.80
2023-04-10T12:41:03.984Z,0.80
2023-04-10T12:42:03.961Z,0.80
2023-04-10T12:43:04.012Z,0.80
2023-04-10T12:44:03.981Z,0.80
2023-04-10T12:45:03.994Z,0.70
2023-04-10T12:46:04.043Z,0.80
2023-04-10T12:47:04.020Z,0.80
2023-04-10T12:48:04.102Z,0.80
2023-04-10T12:49:04.064Z,0.80
2023-04-10T12:50:04.067Z,0.80
2023-04-10T12:51:04.180Z,0.80
2023-04-10T12:52:04.108Z,0.80
2023-04-10T12:53:04.106Z,0.90
2023-04-10T12:54:04.108Z,0.80
2023-04-10T12:55:04.127Z,0.70
2023-04-10T12:56:04.195Z,0.80
2023-04-10T12:57:04.256Z,0.80
2023-04-10T12:58:04.168Z,0.90
2023-04-10T12:59:04.174Z,0.70
2023-04-10T13:00:04.189Z,0.80
2023-04-10T13:01:04.216Z,0.70
2023-04-10T13:02:04.331Z,0.80
2023-04-10T13:03:04.453Z,0.90
2023-04-10T13:04:04.289Z,0.90
2023-04-10T13:05:04.252Z,0.80
2023-04-10T13:06:04.276Z,0.80
2023-04-10T13:07:04.280Z,0.80
2023-04-10T13:08:04.298Z,0.80
2023-04-10T13:09:04.344Z,0.90
2023-04-10T13:10:04.317Z,0.90
2023-04-10T13:11:04.326Z,0.70
2023-04-10T13:12:04.352Z,0.80
2023-04-10T13:13:04.375Z,0.80
2023-04-10T13:14:04.366Z,0.90
2023-04-10T13:15:04.378Z,0.80
2023-04-10T13:16:04.418Z,0.90
2023-04-10T13:17:04.404Z,0.80
2023-04-10T13:18:06.002Z,0.90
2023-04-10T13:19:04.427Z,0.80
2023-04-10T13:20:04.449Z,0.90